createdAt,value
2023-08-15T00:00:03.022Z,194.21200000000002
2023-08-15T00:05:02.893Z,182.834
2023-08-15T00:10:02.826Z,171.919
2023-08-15T00:15:02.876Z,248.882
2023-08-15T00:20:02.841Z,286.603
2023-08-15T00:25:02.963Z,281.186
2023-08-15T00:30:02.884Z,218.322
2023-08-15T00:35:02.893Z,171.228
2023-08-15T00:40:02.847Z,174.18200000000002
2023-08-15T00:45:02.919Z,197.359
2023-08-15T00:50:03.035Z,201.75900000000001
2023-08-15T00:55:02.866Z,269.511
2023-08-15T01:00:02.894Z,326.133
2023-08-15T01:05:02.908Z,319.767
2023-08-15T01:10:02.937Z,248.591
2023-08-15T01:15:03.032Z,207.032
2023-08-15T01:20:02.905Z,207.124
2023-08-15T01:25:02.914Z,206.302
2023-08-15T01:30:02.945Z,199.525
2023-08-15T01:35:07.839Z,270.436
2023-08-15T01:40:03.127Z,313.424
2023-08-15T01:45:02.941Z,307.87
2023-08-15T01:50:02.941Z,226.513
2023-08-15T01:55:02.928Z,193.705
2023-08-15T02:00:02.914Z,183.805
2023-08-15T02:05:03.132Z,172.198
2023-08-15T02:10:02.984Z,170.336
2023-08-15T02:15:02.961Z,251.96
2023-08-15T02:20:02.963Z,287.003
2023-08-15T02:25:02.910Z,281.761
2023-08-15T02:30:03.117Z,192.058
2023-08-15T02:35:03.001Z,187.799
2023-08-15T02:40:03.045Z,194.803
2023-08-15T02:45:02.953Z,195.053
2023-08-15T02:50:03.106Z,192.933
2023-08-15T02:55:02.952Z,296.452
2023-08-15T03:00:03.020Z,313.031
2023-08-15T03:05:03.156Z,301.168
2023-08-15T03:10:00.684Z,185.315
2023-08-15T03:15:00.600Z,178.606
2023-08-15T03:20:00.568Z,361.61
2023-08-15T03:25:00.856Z,178.123
2023-08-15T03:30:00.652Z,178.38400000000001
2023-08-15T03:35:00.718Z,285.494
2023-08-15T03:40:00.616Z,292.016
2023-08-15T03:45:00.598Z,298.022
2023-08-15T03:50:00.786Z,210.25300000000001
2023-08-15T03:55:00.643Z,211.273
2023-08-15T04:00:00.764Z,211.017
2023-08-15T04:05:00.683Z,217.148
2023-08-15T04:10:00.650Z,215.799
2023-08-15T04:15:00.634Z,330.127
2023-08-15T04:20:00.671Z,322.446
2023-08-15T04:25:00.771Z,293.868
2023-08-15T04:30:00.657Z,197.40200000000002
2023-08-15T04:35:00.702Z,195.00900000000001
2023-08-15T04:40:00.732Z,194.841
2023-08-15T04:45:00.736Z,194.502
2023-08-15T04:50:00.806Z,208.886
2023-08-15T04:55:00.702Z,312.656
2023-08-15T05:00:00.815Z,283.531
2023-08-15T05:05:00.752Z,251.332
2023-08-15T05:10:00.717Z,170.026
2023-08-15T05:15:00.757Z,172.617
2023-08-15T05:20:00.722Z,181.036
2023-08-15T05:25:00.848Z,186.221
2023-08-15T05:30:00.710Z,220.71
2023-08-15T05:35:00.814Z,345.825
2023-08-15T05:40:03.428Z,2034.608
2023-08-15T05:45:00.876Z,1388.377
2023-08-15T05:50:00.790Z,1167.373
2023-08-15T05:55:00.737Z,267.247
2023-08-15T06:00:00.884Z,525.6080000000001
2023-08-15T06:05:00.798Z,577.69
2023-08-15T06:10:00.922Z,260.285
2023-08-15T06:15:00.799Z,354.106
2023-08-15T06:20:00.835Z,340.355
2023-08-15T06:25:00.876Z,323.233
2023-08-15T06:30:00.763Z,338.278
2023-08-15T06:35:00.911Z,446.853
2023-08-15T06:40:00.767Z,482.297
2023-08-15T06:45:00.951Z,482.103
2023-08-15T06:50:00.761Z,490.195
2023-08-15T06:55:00.811Z,589.321
2023-08-15T07:00:00.810Z,580.288
2023-08-15T07:05:00.822Z,572.755
2023-08-15T07:10:00.824Z,641.053
2023-08-15T07:15:00.808Z,810.065
2023-08-15T07:20:00.929Z,487.675
2023-08-15T07:25:00.841Z,462.454
2023-08-15T07:30:00.879Z,480.865
2023-08-15T07:35:00.860Z,854.099
2023-08-15T07:40:00.913Z,996.424
2023-08-15T07:45:00.821Z,1192.218
2023-08-15T07:50:00.889Z,485.075
2023-08-15T07:55:00.957Z,490.54900000000004
2023-08-15T08:00:00.914Z,473.579
2023-08-15T08:05:00.923Z,316.778
2023-08-15T08:10:00.824Z,338.562
2023-08-15T08:15:00.860Z,452.675
2023-08-15T08:20:00.956Z,443.146
2023-08-15T08:25:00.889Z,1246.794
2023-08-15T08:30:01.030Z,332.42
2023-08-15T08:35:00.900Z,293.719
2023-08-15T08:40:00.970Z,298.973
2023-08-15T08:45:00.933Z,314.657
2023-08-15T08:50:00.920Z,298.652
2023-08-15T08:55:00.884Z,414.476
2023-08-15T09:00:00.934Z,421.175
2023-08-15T09:05:01.070Z,408.884
2023-08-15T09:10:00.989Z,299.543
2023-08-15T09:15:00.920Z,303.889
2023-08-15T09:20:00.902Z,316.52500000000003
2023-08-15T09:25:00.931Z,345.011
2023-08-15T09:30:00.913Z,347.36
2023-08-15T09:35:00.955Z,427.015
2023-08-15T09:40:01.118Z,417.173
2023-08-15T09:45:01.049Z,391.313
2023-08-15T09:50:01.019Z,268.818
2023-08-15T09:55:00.910Z,273.192
2023-08-15T10:00:00.925Z,279.813
2023-08-15T10:05:00.939Z,272.694
2023-08-15T10:10:00.940Z,267.802
2023-08-15T10:15:00.911Z,390.765
2023-08-15T10:20:00.945Z,392.01
2023-08-15T10:25:01.773Z,378.034
2023-08-15T10:30:01.075Z,293.063
2023-08-15T10:35:01.039Z,271.183
2023-08-15T10:40:01.004Z,869.183
2023-08-15T10:45:01.032Z,3071.217
2023-08-15T10:50:01.012Z,4060.402
2023-08-15T10:55:00.965Z,2094.011
2023-08-15T11:00:01.139Z,3090.16
2023-08-15T11:05:01.046Z,1849.676
2023-08-15T11:10:01.156Z,261.00100000000003
2023-08-15T11:15:01.034Z,257.599
2023-08-15T11:20:01.065Z,1963.501
2023-08-15T11:25:01.027Z,3326.087
2023-08-15T11:30:01.003Z,1361.597
2023-08-15T11:35:01.155Z,371.03700000000003
2023-08-15T11:40:01.029Z,358.766
2023-08-15T11:45:01.224Z,320.384
2023-08-15T11:50:01.238Z,247.318
2023-08-15T11:55:01.102Z,249.278
2023-08-15T12:00:01.043Z,246.293
2023-08-15T12:05:01.113Z,333.64
2023-08-15T12:15:01.223Z,452.137
2023-08-15T12:20:01.308Z,439.365
2023-08-15T12:25:01.060Z,396.342
2023-08-15T12:30:11.264Z,648.755
2023-08-15T12:35:01.084Z,525.038
2023-08-15T12:40:01.174Z,530.24
2023-08-15T12:45:01.083Z,507.731
2023-08-15T12:50:01.097Z,619.992
2023-08-15T12:55:02.280Z,1231.911
2023-08-15T13:00:01.100Z,2811.266
2023-08-15T13:05:02.295Z,2681.462
2023-08-15T13:10:01.125Z,2176.098
2023-08-15T13:15:01.089Z,462.482
2023-08-15T13:20:01.127Z,467.65500000000003
2023-08-15T13:25:01.157Z,463.938
2023-08-15T13:30:01.251Z,560.59
2023-08-15T13:35:01.158Z,574.573
2023-08-15T13:40:01.416Z,560.392
2023-08-15T13:45:03.274Z,463.90000000000003
2023-08-15T13:50:01.136Z,362.17
2023-08-15T13:55:01.141Z,280.572
2023-08-15T14:00:01.160Z,205.942
2023-08-15T14:05:01.208Z,400.373
2023-08-15T14:10:01.246Z,312.58
2023-08-15T14:15:01.380Z,323.724
2023-08-15T14:20:01.192Z,317.97
2023-08-15T14:25:01.259Z,209.464
2023-08-15T14:30:01.145Z,235.647
2023-08-15T14:35:01.118Z,993.227
2023-08-15T14:40:01.209Z,980.774
2023-08-15T14:45:01.188Z,753.1030000000001
2023-08-15T14:50:01.357Z,323.596
2023-08-15T14:55:01.203Z,312.217
2023-08-15T15:00:01.330Z,286.38100000000003
2023-08-15T15:05:01.262Z,198.916
2023-08-15T15:10:01.310Z,196.52
2023-08-15T15:15:01.234Z,200.49
2023-08-15T15:20:01.334Z,199.799
2023-08-15T15:25:01.249Z,210.059
2023-08-15T15:30:01.188Z,289.299
2023-08-15T15:35:01.379Z,281.44100000000003
2023-08-15T15:40:01.218Z,236.136
2023-08-15T15:45:01.361Z,179.68
2023-08-15T15:50:01.222Z,201.971
2023-08-15T15:55:01.323Z,204.245
2023-08-15T16:00:01.235Z,205.036
2023-08-15T16:05:01.299Z,260.523
2023-08-15T16:10:01.364Z,321.771
2023-08-15T16:15:01.305Z,313.233
2023-08-15T16:20:01.564Z,238.18
2023-08-15T16:25:01.265Z,201.602
2023-08-15T16:30:11.213Z,198.86
2023-08-15T16:35:01.393Z,190.83700000000002
2023-08-15T16:40:01.360Z,188.756
2023-08-15T16:45:01.308Z,279.879
2023-08-15T16:50:01.299Z,302.208
2023-08-15T16:55:01.259Z,296.245
2023-08-15T17:00:01.322Z,198.361
2023-08-15T17:05:01.450Z,188.493
2023-08-15T17:10:01.371Z,189.71
2023-08-15T17:15:01.399Z,164.761
2023-08-15T17:20:01.342Z,159.386
2023-08-15T17:25:01.354Z,268.36
2023-08-15T17:30:01.339Z,273.817
2023-08-15T17:35:01.333Z,283.588
2023-08-15T17:40:01.467Z,182.649
2023-08-15T17:45:01.424Z,182.20600000000002
2023-08-15T17:50:01.467Z,181.504
2023-08-15T17:55:01.330Z,181.294
2023-08-15T18:00:01.315Z,179.34
2023-08-15T18:05:01.383Z,305.955
2023-08-15T18:10:01.450Z,328.211
2023-08-15T18:15:01.530Z,366.321
2023-08-15T18:20:01.377Z,1133.386
2023-08-15T18:25:01.443Z,5573.563
2023-08-15T18:30:01.465Z,4661.332
2023-08-15T18:35:01.394Z,3267.393
2023-08-15T18:40:01.398Z,2635.831
2023-08-15T18:45:01.393Z,4694.488
2023-08-15T18:50:01.568Z,4429.191
2023-08-15T18:55:01.490Z,3645.857
2023-08-15T19:00:01.539Z,3694.821
2023-08-15T19:05:01.395Z,692.219
2023-08-15T19:10:01.434Z,1319.539
2023-08-15T19:15:01.416Z,3540.2690000000002
2023-08-15T19:20:01.384Z,2250.488
2023-08-15T19:25:01.626Z,513.701
2023-08-15T19:30:01.433Z,522.562
2023-08-15T19:35:01.600Z,385.481
2023-08-15T19:40:01.494Z,2222.504
2023-08-15T19:45:01.537Z,3525.223
2023-08-15T19:50:01.452Z,999.898
2023-08-15T19:55:01.566Z,422.892
2023-08-15T20:00:01.545Z,719.523
2023-08-15T20:05:01.590Z,590.249
2023-08-15T20:10:10.387Z,602.995
2023-08-15T20:15:01.453Z,1332.2450000000001
2023-08-15T20:20:01.560Z,1144.695
2023-08-15T20:25:01.560Z,914.465
2023-08-15T20:30:01.562Z,372.279
2023-08-15T20:35:01.470Z,360.795
2023-08-15T20:40:01.534Z,490.535
2023-08-15T20:45:01.705Z,489.317
2023-08-15T20:50:01.490Z,468.37
2023-08-15T20:55:01.618Z,355.548
2023-08-15T21:00:01.468Z,549.452
2023-08-15T21:05:02.047Z,357.321
2023-08-15T21:10:01.940Z,352.488
2023-08-15T21:15:01.535Z,349.194
2023-08-15T21:20:01.629Z,471.026
2023-08-15T21:25:01.543Z,452.608
2023-08-15T21:30:01.766Z,441.42400000000004
2023-08-15T21:35:01.517Z,340.71500000000003
2023-08-15T21:40:01.648Z,338.961
2023-08-15T21:45:01.496Z,335.002
2023-08-15T21:50:01.580Z,310.665
2023-08-15T21:55:01.611Z,326.433
2023-08-15T22:00:01.625Z,432.282
2023-08-15T22:05:01.727Z,422.195
2023-08-15T22:10:01.591Z,319.961
2023-08-15T22:15:01.720Z,660.212
2023-08-15T22:20:01.650Z,380.659
2023-08-15T22:25:06.277Z,187.78300000000002
2023-08-15T22:30:01.584Z,187.362
2023-08-15T22:35:01.635Z,353.321
2023-08-15T22:40:01.794Z,284.86400000000003
2023-08-15T22:45:01.636Z,276.931
2023-08-15T22:50:01.785Z,374.421
2023-08-15T22:55:01.595Z,194.749
2023-08-15T23:00:01.609Z,1954.334
2023-08-15T23:05:01.613Z,3096.6620000000003
2023-08-15T23:10:01.654Z,609.069
2023-08-15T23:15:01.760Z,223.882
2023-08-15T23:20:01.641Z,305.509
2023-08-15T23:25:01.779Z,302.927
2023-08-15T23:30:01.607Z,463.365
2023-08-15T23:35:01.682Z,197.43200000000002
2023-08-15T23:40:01.675Z,197.482
2023-08-15T23:45:01.634Z,370.968
2023-08-15T23:50:01.779Z,195.497
2023-08-15T23:55:01.616Z,239.071
